createdAt,value
2019-01-19T00:01:59.125Z,7.92
2019-01-19T00:07:06.697Z,7.39
2019-01-19T00:12:15.161Z,7.47
2019-01-19T00:17:22.798Z,7.82
2019-01-19T00:22:30.477Z,8.33
2019-01-19T00:27:38.118Z,8.63
2019-01-19T00:32:45.765Z,8.29
2019-01-19T00:37:53.546Z,7.35
2019-01-19T00:43:01.341Z,7.91
2019-01-19T00:48:09.057Z,9.27
2019-01-19T00:53:16.672Z,9.29
2019-01-19T00:58:25.627Z,9.15
2019-01-19T01:03:33.281Z,9.09
2019-01-19T01:08:41.095Z,8.77
2019-01-19T01:13:48.764Z,8.55
2019-01-19T01:18:56.674Z,9.76
2019-01-19T01:24:04.296Z,8.34
2019-01-19T01:29:11.953Z,10.19
2019-01-19T01:34:19.726Z,9.23
2019-01-19T01:39:33.274Z,10.07
2019-01-19T01:44:30.805Z,9.00
2019-01-19T01:49:38.581Z,10.24
2019-01-19T01:54:46.306Z,9.67
2019-01-19T01:59:55.240Z,11.21
2019-01-19T02:05:02.975Z,11.20
2019-01-19T02:10:10.873Z,13.13
2019-01-19T02:15:18.449Z,11.55
2019-01-19T02:20:26.573Z,11.09
2019-01-19T02:25:34.297Z,11.51
2019-01-19T02:30:42.106Z,12.99
2019-01-19T02:35:49.745Z,11.86
2019-01-19T02:40:57.407Z,13.89
2019-01-19T02:46:05.370Z,10.39
2019-01-19T02:51:13.060Z,12.93
2019-01-19T02:56:21.613Z,12.52
2019-01-19T03:01:29.378Z,11.55
2019-01-19T03:06:37.233Z,11.55
2019-01-19T03:11:45.378Z,10.74
2019-01-19T03:16:52.965Z,11.00
2019-01-19T03:22:00.575Z,12.25
2019-01-19T03:27:08.417Z,11.69
2019-01-19T03:32:17.090Z,11.86
2019-01-19T03:37:24.803Z,12.36
2019-01-19T03:42:32.530Z,12.13
2019-01-19T03:47:40.298Z,11.93
2019-01-19T03:52:47.894Z,12.78
2019-01-19T03:57:55.661Z,12.47
2019-01-19T04:03:03.282Z,13.28
2019-01-19T04:08:11.386Z,13.68
2019-01-19T04:13:19.048Z,13.77
2019-01-19T04:18:26.853Z,13.79
2019-01-19T04:23:34.517Z,14.42
2019-01-19T04:28:42.278Z,13.43
2019-01-19T04:33:50.045Z,11.99
2019-01-19T04:38:57.736Z,14.90
2019-01-19T04:44:05.445Z,14.32
2019-01-19T04:49:13.612Z,13.41
2019-01-19T04:54:21.186Z,12.96
2019-01-19T04:59:29.766Z,14.36
2019-01-19T05:04:37.481Z,12.35
2019-01-19T05:09:45.482Z,13.87
2019-01-19T05:14:53.177Z,12.55
2019-01-19T05:20:02.792Z,14.36
2019-01-19T05:25:10.930Z,11.36
2019-01-19T05:30:18.458Z,13.46
2019-01-19T05:35:27.107Z,12.51
2019-01-19T05:40:34.717Z,12.35
2019-01-19T05:45:42.621Z,21.11
2019-01-19T05:50:50.388Z,12.78
2019-01-19T05:55:57.981Z,13.84
2019-01-19T06:01:05.646Z,13.97
2019-01-19T06:06:13.291Z,12.41
2019-01-19T06:11:21.625Z,11.31
2019-01-19T06:16:29.365Z,25.44
2019-01-19T06:21:37.118Z,13.05
2019-01-19T06:26:45.889Z,12.85
2019-01-19T06:31:53.474Z,12.17
2019-01-19T06:37:04.274Z,12.85
2019-01-19T06:42:09.716Z,24.02
2019-01-19T06:47:18.350Z,14.61
2019-01-19T06:52:25.929Z,11.99
2019-01-19T06:57:33.701Z,12.88
2019-01-19T07:02:43.123Z,13.22
2019-01-19T07:07:49.044Z,14.53
2019-01-19T07:12:56.761Z,14.37
2019-01-19T07:18:04.385Z,14.33
2019-01-19T07:23:11.969Z,14.74
2019-01-19T07:28:21.565Z,14.01
2019-01-19T07:33:29.584Z,14.22
2019-01-19T07:38:40.305Z,15.88
2019-01-19T07:43:37.987Z,13.24
2019-01-19T07:48:45.613Z,17.21
2019-01-19T07:53:53.278Z,15.57
2019-01-19T07:59:00.965Z,16.14
2019-01-19T08:04:08.661Z,17.29
2019-01-19T08:09:16.717Z,17.70
2019-01-19T08:14:24.544Z,18.46
2019-01-19T08:19:32.377Z,18.82
2019-01-19T08:24:40.118Z,21.09
2019-01-19T08:29:47.866Z,20.61
2019-01-19T08:34:55.565Z,22.15
2019-01-19T08:40:03.155Z,22.36
2019-01-19T08:45:11.141Z,21.13
2019-01-19T08:50:18.889Z,19.99
2019-01-19T08:55:27.429Z,20.16
2019-01-19T09:00:35.050Z,17.76
2019-01-19T09:05:42.868Z,19.45
2019-01-19T09:10:50.472Z,17.00
2019-01-19T09:15:58.277Z,17.69
2019-01-19T09:21:05.869Z,16.22
2019-01-19T09:26:15.154Z,18.24
2019-01-19T09:31:24.685Z,16.95
2019-01-19T09:36:32.430Z,16.39
2019-01-19T09:41:40.201Z,17.46
2019-01-19T09:46:47.995Z,16.52
2019-01-19T09:51:55.898Z,18.57
2019-01-19T09:57:04.849Z,17.56
2019-01-19T10:02:12.524Z,14.60
2019-01-19T10:07:20.529Z,14.18
2019-01-19T10:12:28.181Z,14.79
2019-01-19T10:17:35.786Z,14.29
2019-01-19T10:22:45.581Z,12.12
2019-01-19T10:27:53.201Z,12.06
2019-01-19T10:33:01.155Z,11.49
2019-01-19T10:38:08.800Z,11.93
2019-01-19T10:43:17.425Z,10.73
2019-01-19T10:48:25.113Z,9.99
2019-01-19T10:53:32.785Z,20.28
2019-01-19T10:58:40.906Z,7.80
2019-01-19T11:03:49.648Z,8.79
2019-01-19T11:08:57.304Z,9.05
2019-01-19T11:14:05.266Z,8.92
2019-01-19T11:19:12.935Z,7.99
2019-01-19T11:24:20.455Z,7.98
2019-01-19T11:29:28.272Z,8.18
2019-01-19T11:34:35.869Z,7.10
2019-01-19T11:39:43.780Z,6.39
2019-01-19T11:44:51.494Z,6.59
2019-01-19T11:49:59.365Z,6.49
2019-01-19T11:55:07.000Z,6.82
2019-01-19T12:00:14.846Z,6.40
2019-01-19T12:05:22.919Z,6.19
2019-01-19T12:10:31.175Z,7.43
2019-01-19T12:15:38.709Z,6.36
2019-01-19T12:20:46.581Z,7.19
2019-01-19T12:25:54.643Z,6.25
2019-01-19T12:31:02.337Z,6.31
2019-01-19T12:36:10.421Z,5.12
2019-01-19T12:41:18.243Z,5.42
2019-01-19T12:46:25.865Z,4.55
2019-01-19T12:51:33.893Z,5.79
2019-01-19T12:56:41.517Z,4.59
2019-01-19T13:01:49.282Z,3.11
2019-01-19T13:06:57.013Z,3.23
2019-01-19T13:12:06.003Z,3.10
2019-01-19T13:17:14.254Z,4.21
2019-01-19T13:22:22.291Z,3.15
2019-01-19T13:27:29.865Z,4.11
2019-01-19T13:32:37.699Z,3.77
2019-01-19T13:37:46.351Z,4.25
2019-01-19T13:42:54.097Z,3.23
2019-01-19T13:48:01.978Z,3.50
2019-01-19T13:53:09.742Z,4.75
2019-01-19T13:58:18.065Z,5.45
2019-01-19T14:03:26.168Z,3.98
2019-01-19T14:08:33.818Z,3.95
2019-01-19T14:13:41.524Z,4.61
2019-01-19T14:18:49.159Z,4.28
2019-01-19T14:23:56.927Z,4.49
2019-01-19T14:29:04.563Z,5.21
2019-01-19T14:34:12.342Z,3.63
2019-01-19T14:39:20.061Z,3.49
2019-01-19T14:44:27.745Z,3.55
2019-01-19T14:49:36.342Z,4.17
2019-01-19T14:54:45.629Z,4.21
2019-01-19T14:59:52.423Z,4.14
2019-01-19T15:05:00.175Z,3.56
2019-01-19T15:10:08.317Z,4.32
2019-01-19T15:15:16.243Z,3.97
2019-01-19T15:20:23.968Z,3.70
2019-01-19T15:25:31.614Z,3.56
2019-01-19T15:30:40.166Z,4.01
2019-01-19T15:35:48.033Z,3.54
2019-01-19T15:40:55.941Z,4.65
2019-01-19T15:46:03.694Z,4.01
2019-01-19T15:51:11.289Z,5.14
2019-01-19T15:56:18.989Z,4.86
2019-01-19T16:01:26.819Z,5.68
2019-01-19T16:06:34.438Z,7.08
2019-01-19T16:11:42.145Z,6.81
2019-01-19T16:16:49.821Z,7.12
2019-01-19T16:21:57.726Z,9.53
2019-01-19T16:27:05.441Z,8.70
2019-01-19T16:32:13.228Z,6.94
2019-01-19T16:37:21.106Z,7.50
2019-01-19T16:42:30.725Z,8.00
2019-01-19T16:47:38.481Z,7.67
2019-01-19T16:52:46.176Z,10.00
2019-01-19T16:57:53.913Z,10.20
2019-01-19T17:03:01.629Z,10.53
2019-01-19T17:08:09.775Z,10.23
2019-01-19T17:13:17.430Z,8.71
2019-01-19T17:18:26.454Z,7.04
2019-01-19T17:23:32.728Z,6.62
2019-01-19T17:28:40.461Z,6.60
2019-01-19T17:33:48.265Z,7.73
2019-01-19T17:38:56.284Z,7.77
2019-01-19T17:44:03.967Z,8.16
2019-01-19T17:49:11.569Z,7.16
2019-01-19T17:54:19.196Z,12.31
2019-01-19T17:59:27.010Z,8.70
2019-01-19T18:04:34.766Z,8.70
2019-01-19T18:09:47.435Z,8.34
2019-01-19T18:14:49.783Z,7.76
2019-01-19T18:19:57.601Z,7.27
2019-01-19T18:25:05.551Z,6.75
2019-01-19T18:30:13.325Z,8.15
2019-01-19T18:35:21.008Z,9.09
2019-01-19T18:40:28.810Z,8.57
2019-01-19T18:45:36.545Z,9.65
2019-01-19T18:50:44.309Z,13.82
2019-01-19T18:55:51.921Z,11.11
2019-01-19T19:01:00.457Z,12.66
2019-01-19T19:06:08.149Z,8.32
2019-01-19T19:11:16.197Z,8.91
2019-01-19T19:16:24.127Z,11.18
2019-01-19T19:21:32.762Z,9.70
2019-01-19T19:26:40.429Z,13.07
2019-01-19T19:31:48.723Z,12.66
2019-01-19T19:36:56.358Z,10.58
2019-01-19T19:42:04.100Z,13.06
2019-01-19T19:47:11.710Z,11.61
2019-01-19T19:52:19.389Z,11.43
2019-01-19T19:57:27.037Z,12.27
2019-01-19T20:02:34.726Z,10.23
2019-01-19T20:07:42.752Z,12.91
2019-01-19T20:12:50.443Z,11.37
2019-01-19T20:17:58.193Z,11.17
2019-01-19T20:23:06.135Z,11.24
2019-01-19T20:28:13.890Z,13.88
2019-01-19T20:33:23.107Z,9.75
2019-01-19T20:38:30.828Z,11.03
2019-01-19T20:43:39.164Z,10.82
2019-01-19T20:48:46.880Z,11.26
2019-01-19T20:53:54.615Z,11.18
2019-01-19T20:59:02.347Z,12.29
2019-01-19T21:04:15.712Z,11.54
2019-01-19T21:09:17.697Z,11.85
2019-01-19T21:14:26.317Z,11.27
2019-01-19T21:19:33.997Z,10.52
2019-01-19T21:24:41.575Z,11.45
2019-01-19T21:29:49.272Z,12.00
2019-01-19T21:34:57.094Z,11.52
2019-01-19T21:40:04.889Z,12.22
2019-01-19T21:45:12.650Z,11.70
2019-01-19T21:50:20.283Z,11.41
2019-01-19T21:55:27.899Z,10.80
2019-01-19T22:00:35.628Z,12.43
2019-01-19T22:05:49.515Z,12.04
2019-01-19T22:10:50.609Z,11.58
2019-01-19T22:15:58.636Z,12.97
2019-01-19T22:21:06.277Z,12.63
2019-01-19T22:26:13.937Z,13.38
2019-01-19T22:31:22.644Z,13.76
2019-01-19T22:36:30.281Z,12.81
2019-01-19T22:41:38.874Z,11.43
2019-01-19T22:46:47.216Z,13.58
2019-01-19T22:51:55.338Z,14.21
2019-01-19T22:57:03.973Z,13.30
2019-01-19T23:02:11.615Z,13.01
2019-01-19T23:07:19.353Z,16.19
2019-01-19T23:12:28.721Z,15.31
2019-01-19T23:17:36.688Z,13.51
2019-01-19T23:22:44.287Z,13.47
2019-01-19T23:27:52.102Z,14.72
2019-01-19T23:33:01.178Z,15.62
2019-01-19T23:38:07.221Z,13.36
2019-01-19T23:43:14.858Z,14.05
2019-01-19T23:48:24.469Z,13.19
2019-01-19T23:53:32.098Z,15.18
2019-01-19T23:58:39.798Z,15.32
